Titan — ZCED2 — position and weather

sailwx.info

Track history (hours):
 
Tides and Currents Weather Stations Pressure Air Temp Water Temp Dewpoint Dewpoint Depression Visibility Wind Speed Wind Dir Waves Ship Positions

Titan

Last reported at 2016-Jun-26 14:25 UTC. Time now 2016-Jun-26 15:36 UTC.
Position N 40°49' E 014°14'.

Length 80 m; draft 3.5 m.

Type: Pleasure craft. MMSI: 310598000.

Date/timePositionNaut miles runAvg speedWind from/ knotsBaromVisibWave heightAir tempDewpointWater temp
2016-Jun-26 14:25N 40°49' E 014°14'0 0.0
2016-Jun-26 06:24N 40°49' E 014°14'1211.1
2016-Jun-26 05:21N 40°38' E 014°17'14312.0
2016-Jun-25 17:30N 38°29' E 015°36'1212.6
2016-Jun-25 16:33N 38°18' E 015°42'1010.2
2016-Jun-25 15:33N 38°09' E 015°37'1110.9
2016-Jun-25 14:33N 37°58' E 015°34'1211.8
2016-Jun-25 13:32N 37°47' E 015°31'  
2016-Jun-17 10:33N 37°44' E 015°18'  
Track history (hours):
 
Tides and Currents Weather Stations Pressure Air Temp Water Temp Dewpoint Dewpoint Depression Visibility Wind Speed Wind Dir Waves Ship Positions

Titan

Last reported at 2016-Jun-26 14:25 UTC. Time now 2016-Jun-26 15:36 UTC.
Position N 40°49' E 014°14'.

Length 80 m; draft 3.5 m.

Type: Pleasure craft. MMSI: 310598000.

Date/timePositionNaut miles runAvg speedWind from/ knotsBaromVisibWave heightAir tempDewpointWater temp
2016-Jun-26 14:25N 40°49' E 014°14'0 0.0
2016-Jun-26 06:24N 40°49' E 014°14'1211.1
2016-Jun-26 05:21N 40°38' E 014°17'14312.0
2016-Jun-25 17:30N 38°29' E 015°36'1212.6
2016-Jun-25 16:33N 38°18' E 015°42'1010.2
2016-Jun-25 15:33N 38°09' E 015°37'1110.9
2016-Jun-25 14:33N 37°58' E 015°34'1211.8
2016-Jun-25 13:32N 37°47' E 015°31'  
2016-Jun-17 10:33N 37°44' E 015°18'  

Dump ship's entire track history